Salacak — 3FBM4 — position and weather

sailwx.info

Track history (hours):
 
Tides and Currents Weather Stations Pressure Air Temp Water Temp Dewpoint Dewpoint Depression Visibility Wind Speed Wind Dir Waves Ship Positions

Salacak

Last reported at 2015-Jul-27 15:03 UTC. Time now 2015-Aug-05 10:25 UTC.
Position N 42°32' E 034°08'.
Warning: this ship's position is 8 days out of date.

Length 126 m; draft 8.8 m.

Type: Cargo ship. MMSI: 373532000.

Date/timePositionNaut miles runAvg speedWind from/ knotsBaromVisibWave heightAir tempDewpointWater temp
2015-Jul-27 15:03N 42°32' E 034°08'511.1
2015-Jul-27 14:33N 42°36' E 034°14'1111.4
2015-Jul-27 13:34N 42°42' E 034°26'1211.7
2015-Jul-27 12:33N 42°49' E 034°39'2110.7
2015-Jul-27 10:33N 43°04' E 035°01'7 7.0
2015-Jul-27 09:33N 43°08' E 035°09'1211.7
2015-Jul-27 08:33N 43°15' E 035°22'1212.1
2015-Jul-27 07:33N 43°21' E 035°36'1211.9
2015-Jul-27 06:33N 43°29' E 035°48'1211.6
2015-Jul-27 05:33N 43°37' E 036°00'1211.7
2015-Jul-27 04:33N 43°44' E 036°13'1212.0
2015-Jul-27 03:33N 43°51' E 036°26'1212.2
2015-Jul-27 02:33N 43°58' E 036°40'1212.4
2015-Jul-27 01:33N 44°06' E 036°53'1312.5
2015-Jul-27 00:33N 44°14' E 037°07'1312.5
2015-Jul-26 23:31N 44°21' E 037°21'1212.2
2015-Jul-26 22:33N 44°29' E 037°35'1211.9
2015-Jul-26 21:33N 44°36' E 037°47'7 7.4
2015-Jul-26 20:33N 44°44' E 037°48'0 0.3
2015-Jul-26 19:33N 44°44' E 037°47'0 0.0
2015-Jul-26 18:33N 44°44' E 037°47'0 0.0
2015-Jul-26 17:33N 44°44' E 037°47'0 0.0
2015-Jul-26 16:33N 44°44' E 037°47'0 0.0
2015-Jul-26 15:33N 44°44' E 037°47'0 0.0
2015-Jul-26 14:33N 44°44' E 037°47'0 0.0
2015-Jul-26 13:33N 44°44' E 037°47'0 0.0
2015-Jul-26 12:32N 44°44' E 037°47'0 0.0
2015-Jul-26 11:29N 44°44' E 037°47'0 0.0
2015-Jul-26 10:32N 44°44' E 037°47'0 0.0
2015-Jul-26 09:32N 44°44' E 037°47'0 0.0
2015-Jul-26 08:32N 44°44' E 037°47'0 0.0
2015-Jul-26 07:32N 44°44' E 037°47'0 0.0
2015-Jul-26 06:32N 44°44' E 037°47'0 0.0
2015-Jul-26 05:32N 44°44' E 037°47'0 0.0
2015-Jul-26 04:32N 44°44' E 037°47'0 0.0
2015-Jul-26 03:32N 44°44' E 037°47'0 0.0
2015-Jul-26 02:32N 44°44' E 037°47'0 0.0
2015-Jul-26 01:32N 44°44' E 037°47'0 0.0
2015-Jul-26 00:32N 44°44' E 037°47'0 0.0
2015-Jul-25 23:32N 44°44' E 037°47'0 0.0
2015-Jul-25 22:32N 44°44' E 037°47'0 0.0
2015-Jul-25 21:32N 44°44' E 037°47'0 0.0
2015-Jul-25 20:32N 44°44' E 037°47'0 0.0
2015-Jul-25 19:32N 44°44' E 037°47'0 0.0
2015-Jul-25 18:32N 44°44' E 037°47'0 0.0
2015-Jul-25 17:32N 44°44' E 037°47'0 0.0
2015-Jul-25 16:32N 44°44' E 037°47'0 0.0
2015-Jul-25 15:32N 44°44' E 037°47'0 0.0
2015-Jul-25 14:32N 44°44' E 037°47'0 0.0
2015-Jul-25 13:32N 44°44' E 037°47'0 0.0
2015-Jul-25 12:32N 44°44' E 037°47'0 0.0
2015-Jul-25 11:32N 44°44' E 037°47'0 0.0
2015-Jul-25 10:32N 44°44' E 037°47'0 0.0
2015-Jul-25 09:32N 44°44' E 037°47'0 0.0
2015-Jul-25 08:32N 44°44' E 037°47'0 0.0
2015-Jul-25 07:32N 44°44' E 037°47'0 0.0
2015-Jul-25 06:32N 44°44' E 037°47'0 0.0
2015-Jul-25 05:32N 44°44' E 037°47'0 0.0
2015-Jul-25 04:32N 44°44' E 037°47'0 0.0
2015-Jul-25 03:31N 44°44' E 037°47'0 0.0
2015-Jul-25 02:31N 44°44' E 037°47'0 0.0
2015-Jul-25 01:31N 44°44' E 037°47'0 0.0
2015-Jul-25 00:31N 44°44' E 037°47'0 0.0
2015-Jul-24 23:31N 44°44' E 037°47'0 0.0
2015-Jul-24 22:31N 44°44' E 037°47'0 0.0
2015-Jul-24 21:31N 44°44' E 037°47'0 0.0
2015-Jul-24 20:31N 44°44' E 037°47'0 0.1
2015-Jul-24 19:33N 44°44' E 037°48'4 3.7
2015-Jul-24 18:33N 44°40' E 037°50'6 6.2
2015-Jul-24 17:33N 44°35' E 037°47'1211.7
2015-Jul-24 16:33N 44°27' E 037°34'10 7.2
2015-Jul-24 15:12N 44°22' E 037°23'0 0.6
2015-Jul-24 14:33N 44°22' E 037°23'0 0.2
2015-Jul-24 12:18N 44°23' E 037°23'0 0.4
2015-Jul-24 11:30N 44°23' E 037°24'0 0.2
2015-Jul-24 10:33N 44°23' E 037°24'0 0.3
2015-Jul-24 09:09N 44°22' E 037°24'0 0.6
2015-Jul-24 08:30N 44°22' E 037°25'1 0.7
2015-Jul-24 07:27N 44°22' E 037°26'1 0.8
2015-Jul-24 06:33N 44°22' E 037°27'1 0.8
2015-Jul-24 05:30N 44°22' E 037°28'1 0.8
2015-Jul-24 04:33N 44°22' E 037°29'1 0.9
2015-Jul-24 03:33N 44°22' E 037°30'1 0.9
2015-Jul-24 02:33N 44°22' E 037°32'1 1.0
2015-Jul-24 01:24N 44°23' E 037°33'1 1.1
2015-Jul-24 00:33N 44°23' E 037°34'1 0.9
2015-Jul-23 23:30N 44°24' E 037°35'1 1.5
2015-Jul-23 22:32N 44°24' E 037°37'1010.4
2015-Jul-23 21:33N 44°27' E 037°51'1 1.2
2015-Jul-23 20:33N 44°28' E 037°51'1 0.5
2015-Jul-23 19:33N 44°29' E 037°52'0 0.4
2015-Jul-23 18:33N 44°29' E 037°52'0 0.4
2015-Jul-23 17:33N 44°30' E 037°52'1 0.5
2015-Jul-23 16:33N 44°30' E 037°51'1 0.6
2015-Jul-23 15:33N 44°30' E 037°50'1 0.5
2015-Jul-23 14:33N 44°31' E 037°50'0 0.5
2015-Jul-23 13:33N 44°31' E 037°49'0 0.3
2015-Jul-23 12:33N 44°31' E 037°49'0 0.3
2015-Jul-23 11:33N 44°30' E 037°48'0 0.3
2015-Jul-23 10:33N 44°30' E 037°48'0 0.3
2015-Jul-23 09:33N 44°30' E 037°48'0 0.4
2015-Jul-23 08:33N 44°30' E 037°48'0 0.3
2015-Jul-23 07:33N 44°29' E 037°48'0 0.3
2015-Jul-23 06:33N 44°29' E 037°49'0 0.1
2015-Jul-23 05:33N 44°29' E 037°49'0 0.2
2015-Jul-23 04:33N 44°29' E 037°49'0 0.3
2015-Jul-23 03:32N 44°29' E 037°49'6 6.3
2015-Jul-23 02:33N 44°27' E 037°41'  
Track history (hours):
 
Tides and Currents Weather Stations Pressure Air Temp Water Temp Dewpoint Dewpoint Depression Visibility Wind Speed Wind Dir Waves Ship Positions

Salacak

Last reported at 2015-Jul-27 15:03 UTC. Time now 2015-Aug-05 10:25 UTC.
Position N 42°32' E 034°08'.
Warning: this ship's position is 8 days out of date.

Length 126 m; draft 8.8 m.

Type: Cargo ship. MMSI: 373532000.

Date/timePositionNaut miles runAvg speedWind from/ knotsBaromVisibWave heightAir tempDewpointWater temp
2015-Jul-27 15:03N 42°32' E 034°08'511.1
2015-Jul-27 14:33N 42°36' E 034°14'1111.4
2015-Jul-27 13:34N 42°42' E 034°26'1211.7
2015-Jul-27 12:33N 42°49' E 034°39'2110.7
2015-Jul-27 10:33N 43°04' E 035°01'7 7.0
2015-Jul-27 09:33N 43°08' E 035°09'1211.7
2015-Jul-27 08:33N 43°15' E 035°22'1212.1
2015-Jul-27 07:33N 43°21' E 035°36'1211.9
2015-Jul-27 06:33N 43°29' E 035°48'1211.6
2015-Jul-27 05:33N 43°37' E 036°00'1211.7
2015-Jul-27 04:33N 43°44' E 036°13'1212.0
2015-Jul-27 03:33N 43°51' E 036°26'1212.2
2015-Jul-27 02:33N 43°58' E 036°40'1212.4
2015-Jul-27 01:33N 44°06' E 036°53'1312.5
2015-Jul-27 00:33N 44°14' E 037°07'1312.5
2015-Jul-26 23:31N 44°21' E 037°21'1212.2
2015-Jul-26 22:33N 44°29' E 037°35'1211.9
2015-Jul-26 21:33N 44°36' E 037°47'7 7.4
2015-Jul-26 20:33N 44°44' E 037°48'0 0.3
2015-Jul-26 19:33N 44°44' E 037°47'0 0.0
2015-Jul-26 18:33N 44°44' E 037°47'0 0.0
2015-Jul-26 17:33N 44°44' E 037°47'0 0.0
2015-Jul-26 16:33N 44°44' E 037°47'0 0.0
2015-Jul-26 15:33N 44°44' E 037°47'0 0.0
2015-Jul-26 14:33N 44°44' E 037°47'0 0.0
2015-Jul-26 13:33N 44°44' E 037°47'0 0.0
2015-Jul-26 12:32N 44°44' E 037°47'0 0.0
2015-Jul-26 11:29N 44°44' E 037°47'0 0.0
2015-Jul-26 10:32N 44°44' E 037°47'0 0.0
2015-Jul-26 09:32N 44°44' E 037°47'0 0.0
2015-Jul-26 08:32N 44°44' E 037°47'0 0.0
2015-Jul-26 07:32N 44°44' E 037°47'0 0.0
2015-Jul-26 06:32N 44°44' E 037°47'0 0.0
2015-Jul-26 05:32N 44°44' E 037°47'0 0.0
2015-Jul-26 04:32N 44°44' E 037°47'0 0.0
2015-Jul-26 03:32N 44°44' E 037°47'0 0.0
2015-Jul-26 02:32N 44°44' E 037°47'0 0.0
2015-Jul-26 01:32N 44°44' E 037°47'0 0.0
2015-Jul-26 00:32N 44°44' E 037°47'0 0.0
2015-Jul-25 23:32N 44°44' E 037°47'0 0.0
2015-Jul-25 22:32N 44°44' E 037°47'0 0.0
2015-Jul-25 21:32N 44°44' E 037°47'0 0.0
2015-Jul-25 20:32N 44°44' E 037°47'0 0.0
2015-Jul-25 19:32N 44°44' E 037°47'0 0.0
2015-Jul-25 18:32N 44°44' E 037°47'0 0.0
2015-Jul-25 17:32N 44°44' E 037°47'0 0.0
2015-Jul-25 16:32N 44°44' E 037°47'0 0.0
2015-Jul-25 15:32N 44°44' E 037°47'0 0.0
2015-Jul-25 14:32N 44°44' E 037°47'0 0.0
2015-Jul-25 13:32N 44°44' E 037°47'0 0.0
2015-Jul-25 12:32N 44°44' E 037°47'0 0.0
2015-Jul-25 11:32N 44°44' E 037°47'0 0.0
2015-Jul-25 10:32N 44°44' E 037°47'0 0.0
2015-Jul-25 09:32N 44°44' E 037°47'0 0.0
2015-Jul-25 08:32N 44°44' E 037°47'0 0.0
2015-Jul-25 07:32N 44°44' E 037°47'0 0.0
2015-Jul-25 06:32N 44°44' E 037°47'0 0.0
2015-Jul-25 05:32N 44°44' E 037°47'0 0.0
2015-Jul-25 04:32N 44°44' E 037°47'0 0.0
2015-Jul-25 03:31N 44°44' E 037°47'0 0.0
2015-Jul-25 02:31N 44°44' E 037°47'0 0.0
2015-Jul-25 01:31N 44°44' E 037°47'0 0.0
2015-Jul-25 00:31N 44°44' E 037°47'0 0.0
2015-Jul-24 23:31N 44°44' E 037°47'0 0.0
2015-Jul-24 22:31N 44°44' E 037°47'0 0.0
2015-Jul-24 21:31N 44°44' E 037°47'0 0.0
2015-Jul-24 20:31N 44°44' E 037°47'0 0.1
2015-Jul-24 19:33N 44°44' E 037°48'4 3.7
2015-Jul-24 18:33N 44°40' E 037°50'6 6.2
2015-Jul-24 17:33N 44°35' E 037°47'1211.7
2015-Jul-24 16:33N 44°27' E 037°34'10 7.2
2015-Jul-24 15:12N 44°22' E 037°23'0 0.6
2015-Jul-24 14:33N 44°22' E 037°23'0 0.2
2015-Jul-24 12:18N 44°23' E 037°23'0 0.4
2015-Jul-24 11:30N 44°23' E 037°24'0 0.2
2015-Jul-24 10:33N 44°23' E 037°24'0 0.3
2015-Jul-24 09:09N 44°22' E 037°24'0 0.6
2015-Jul-24 08:30N 44°22' E 037°25'1 0.7
2015-Jul-24 07:27N 44°22' E 037°26'1 0.8
2015-Jul-24 06:33N 44°22' E 037°27'1 0.8
2015-Jul-24 05:30N 44°22' E 037°28'1 0.8
2015-Jul-24 04:33N 44°22' E 037°29'1 0.9
2015-Jul-24 03:33N 44°22' E 037°30'1 0.9
2015-Jul-24 02:33N 44°22' E 037°32'1 1.0
2015-Jul-24 01:24N 44°23' E 037°33'1 1.1
2015-Jul-24 00:33N 44°23' E 037°34'1 0.9
2015-Jul-23 23:30N 44°24' E 037°35'1 1.5
2015-Jul-23 22:32N 44°24' E 037°37'1010.4
2015-Jul-23 21:33N 44°27' E 037°51'1 1.2
2015-Jul-23 20:33N 44°28' E 037°51'1 0.5
2015-Jul-23 19:33N 44°29' E 037°52'0 0.4
2015-Jul-23 18:33N 44°29' E 037°52'0 0.4
2015-Jul-23 17:33N 44°30' E 037°52'1 0.5
2015-Jul-23 16:33N 44°30' E 037°51'1 0.6
2015-Jul-23 15:33N 44°30' E 037°50'1 0.5
2015-Jul-23 14:33N 44°31' E 037°50'0 0.5
2015-Jul-23 13:33N 44°31' E 037°49'0 0.3
2015-Jul-23 12:33N 44°31' E 037°49'0 0.3
2015-Jul-23 11:33N 44°30' E 037°48'0 0.3
2015-Jul-23 10:33N 44°30' E 037°48'0 0.3
2015-Jul-23 09:33N 44°30' E 037°48'0 0.4
2015-Jul-23 08:33N 44°30' E 037°48'0 0.3
2015-Jul-23 07:33N 44°29' E 037°48'0 0.3
2015-Jul-23 06:33N 44°29' E 037°49'0 0.1
2015-Jul-23 05:33N 44°29' E 037°49'0 0.2
2015-Jul-23 04:33N 44°29' E 037°49'0 0.3
2015-Jul-23 03:32N 44°29' E 037°49'6 6.3
2015-Jul-23 02:33N 44°27' E 037°41'  

Dump ship's entire track history